Airfield :
LOGIN :

Register | Disclaimer

   EN    FR    IT 

 










Legend :    VFR   Marginal VFR   IFR   Intensive IFR   Very Intensive IFR
Visi :
Ceiling :
>= 8 km
>= 3000ft
5 to 8 km
1000 to 3000 ft
1500m to 5 km
500 to 1000 ft
800 to 1500m
200 to 500 ft
< 800m
< 200 ft
Symbols :   Thunderstorms  Fog  Heavy snow  Heavy precipitations  Wind > 20 kt
SIGMETs :     Misc.  Thunderstorms  Icing  Turbulence  Mountain Waves  Volcanic Ashes






- Airport Elevation : 276 ft


LYVR - Vršac International

CURRENT METAR :
  • 200800Z 17009KT CAVOK 02/M05 Q1021 NOSIG

EXPIRED METARs :
  • 200730Z 18006KT 150V210 CAVOK 02/M06 Q1021 NOSIG
  • 200700Z 16013KT CAVOK 02/M06 Q1022 NOSIG
  • 200630Z 17010KT CAVOK 01/M06 Q1022 NOSIG
  • 200600Z AUTO 18007G17KT CAVOK 01/M06 Q1022
  • 200530Z AUTO 17006G17KT CAVOK 01/M06 Q1021

TAF TAF LYVR
Valid from the 20 at 06:00 until the 21 at 06:00 UTC


200500Z 2006/2106 17008KT CAVOK TX05/2012Z TNM01/2106Z
TEMPO 2006/2011 17018KT
TEMPO 2013/2018 5000 RA
BECMG 2015/2017 33010KT
TEMPO 2021/2024 3000 -SN BKN010 BKN025



MET'MAP, your aeronautical weather chart ! - Copyright ORBIFLY December 2007 - Disclaimer

ORBIFLY MET'MAP TEAM :

Programming & Development : Alexandra Zaïnal
Concept & original design : Baudouin d'Aumeries
Assistance for programming : Marc-Olivier Méhu
Technical & hardware support : Manuel Goepfert

Contact : metmap@orbifly.com




SOURCES & CREDITS :

   NOAA